University, Nevada
Current Conditions -  °F | °C
As of 3:55 AM on Saturday 01 Nov 2014 (Local Time) from KRNO Reporting Station
Light Rain Light Rain  
Wind Chill: 35°   Ceiling: 4300
Heat Index: 40°   Visibility: 10mi
Dew Point: 37°   Wind: 7mph
Humidity: 89%   Direction: 50°NE
Pressure: 29.64"   Gusts: NA
Location:  39.5468°N, 119.815°W
Report Text: KRNO 011055Z 05006KT 10SM -RA SCT035 BKN043 OVC060 04/03 A2964 RMK AO2 RAB38 SLP005 P0000 T00440028
Loading
Personal Weather Stations






























Interactive Weather Map
Tropical Storm Tracking
New forecast layout! Learn more

10-Day Weather Forecast

Advertisements
Track Severe Weather on mobile